sensor_id;sensor_type;location;lat;lon;timestamp;pressure;altitude;pressure_sealevel;temperature;humidity
32456;BME280;18912;43.270;27.942;2023-07-20T00:01:35;97571.88;;;29.45;51.66
32456;BME280;18912;43.270;27.942;2023-07-20T00:04:00;97566.47;;;29.61;51.21
32456;BME280;18912;43.270;27.942;2023-07-20T00:06:26;97576.25;;;29.34;51.54
32456;BME280;18912;43.270;27.942;2023-07-20T00:08:54;97559.63;;;29.59;50.85
32456;BME280;18912;43.270;27.942;2023-07-20T00:11:20;97554.91;;;29.71;49.36
32456;BME280;18912;43.270;27.942;2023-07-20T00:13:45;97552.59;;;29.73;48.95
32456;BME280;18912;43.270;27.942;2023-07-20T00:16:11;97548.84;;;29.90;48.01
32456;BME280;18912;43.270;27.942;2023-07-20T00:18:36;97551.25;;;30.03;47.80
32456;BME280;18912;43.270;27.942;2023-07-20T00:21:02;97550.63;;;29.74;47.49
32456;BME280;18912;43.270;27.942;2023-07-20T00:23:27;97563.91;;;29.89;47.46
32456;BME280;18912;43.270;27.942;2023-07-20T00:25:53;97557.66;;;29.92;46.52
32456;BME280;18912;43.270;27.942;2023-07-20T00:28:19;97557.66;;;30.04;46.64
32456;BME280;18912;43.270;27.942;2023-07-20T00:30:45;97559.28;;;30.17;46.31
32456;BME280;18912;43.270;27.942;2023-07-20T00:33:11;97566.69;;;30.33;45.72
32456;BME280;18912;43.270;27.942;2023-07-20T00:35:38;97565.19;;;30.03;45.35
32456;BME280;18912;43.270;27.942;2023-07-20T00:38:04;97570.91;;;30.19;44.78
32456;BME280;18912;43.270;27.942;2023-07-20T00:40:40;97567.66;;;30.05;45.67
32456;BME280;18912;43.270;27.942;2023-07-20T00:43:06;97556.63;;;30.20;44.70
32456;BME280;18912;43.270;27.942;2023-07-20T00:45:33;97550.81;;;30.01;45.05
32456;BME280;18912;43.270;27.942;2023-07-20T00:48:01;97551.75;;;29.93;45.27
32456;BME280;18912;43.270;27.942;2023-07-20T00:50:28;97548.38;;;30.00;45.03
32456;BME280;18912;43.270;27.942;2023-07-20T00:52:55;97547.88;;;29.86;45.04
32456;BME280;18912;43.270;27.942;2023-07-20T00:55:21;97555.47;;;30.21;44.95
32456;BME280;18912;43.270;27.942;2023-07-20T00:57:47;97560.31;;;30.00;44.90
32456;BME280;18912;43.270;27.942;2023-07-20T01:00:13;97558.13;;;30.06;44.96
32456;BME280;18912;43.270;27.942;2023-07-20T01:02:39;97558.84;;;30.03;44.11
32456;BME280;18912;43.270;27.942;2023-07-20T01:05:06;97558.97;;;30.18;43.86
32456;BME280;18912;43.270;27.942;2023-07-20T01:10:16;97561.16;;;30.01;43.95
32456;BME280;18912;43.270;27.942;2023-07-20T01:12:48;97559.34;;;30.29;43.41
32456;BME280;18912;43.270;27.942;2023-07-20T01:15:16;97552.44;;;30.02;43.49
32456;BME280;18912;43.270;27.942;2023-07-20T01:17:42;97552.06;;;29.80;44.13
32456;BME280;18912;43.270;27.942;2023-07-20T01:20:09;97546.28;;;30.21;43.31
32456;BME280;18912;43.270;27.942;2023-07-20T01:31:28;97548.19;;;30.29;43.62
32456;BME280;18912;43.270;27.942;2023-07-20T01:33:57;97552.47;;;30.14;43.33
32456;BME280;18912;43.270;27.942;2023-07-20T01:36:29;97574.50;;;29.95;43.90
32456;BME280;18912;43.270;27.942;2023-07-20T01:38:56;97573.25;;;30.05;43.33
32456;BME280;18912;43.270;27.942;2023-07-20T01:41:22;97566.03;;;29.92;43.49
32456;BME280;18912;43.270;27.942;2023-07-20T01:43:47;97559.34;;;29.72;44.04
32456;BME280;18912;43.270;27.942;2023-07-20T01:46:13;97578.53;;;30.43;42.35
32456;BME280;18912;43.270;27.942;2023-07-20T01:48:39;97611.66;;;30.11;43.57
32456;BME280;18912;43.270;27.942;2023-07-20T01:51:04;97625.84;;;30.06;44.18
32456;BME280;18912;43.270;27.942;2023-07-20T01:53:30;97632.53;;;29.93;44.61
32456;BME280;18912;43.270;27.942;2023-07-20T01:55:56;97641.84;;;30.09;44.11
32456;BME280;18912;43.270;27.942;2023-07-20T01:58:22;97656.09;;;29.42;45.63
32456;BME280;18912;43.270;27.942;2023-07-20T02:00:48;97634.09;;;29.70;45.44
32456;BME280;18912;43.270;27.942;2023-07-20T02:03:14;97649.91;;;29.58;46.25
32456;BME280;18912;43.270;27.942;2023-07-20T02:05:42;97637.72;;;29.83;46.05
32456;BME280;18912;43.270;27.942;2023-07-20T02:08:07;97630.00;;;29.47;46.63
32456;BME280;18912;43.270;27.942;2023-07-20T02:10:33;97632.38;;;29.78;46.58
32456;BME280;18912;43.270;27.942;2023-07-20T02:12:58;97620.44;;;29.89;46.38
32456;BME280;18912;43.270;27.942;2023-07-20T02:15:24;97625.38;;;29.72;46.93
32456;BME280;18912;43.270;27.942;2023-07-20T02:17:49;97639.09;;;29.35;48.39
32456;BME280;18912;43.270;27.942;2023-07-20T02:20:15;97632.97;;;29.63;48.06
32456;BME280;18912;43.270;27.942;2023-07-20T02:22:40;97621.00;;;29.83;47.88
32456;BME280;18912;43.270;27.942;2023-07-20T02:25:07;97618.44;;;29.78;48.05
32456;BME280;18912;43.270;27.942;2023-07-20T02:27:35;97609.72;;;30.24;46.81
32456;BME280;18912;43.270;27.942;2023-07-20T02:30:01;97611.91;;;29.74;48.14
32456;BME280;18912;43.270;27.942;2023-07-20T02:32:27;97600.66;;;29.49;47.63
32456;BME280;18912;43.270;27.942;2023-07-20T02:34:53;97587.44;;;29.79;47.27
32456;BME280;18912;43.270;27.942;2023-07-20T02:37:19;97591.22;;;29.95;46.86
32456;BME280;18912;43.270;27.942;2023-07-20T02:39:44;97587.50;;;30.03;46.71
32456;BME280;18912;43.270;27.942;2023-07-20T02:42:10;97581.44;;;29.89;47.00
32456;BME280;18912;43.270;27.942;2023-07-20T02:44:35;97574.41;;;30.16;46.23
32456;BME280;18912;43.270;27.942;2023-07-20T02:47:01;97566.38;;;30.26;46.21
32456;BME280;18912;43.270;27.942;2023-07-20T02:49:27;97566.31;;;30.59;45.35
32456;BME280;18912;43.270;27.942;2023-07-20T02:51:52;97564.44;;;30.87;45.15
32456;BME280;18912;43.270;27.942;2023-07-20T02:54:18;97558.94;;;31.03;44.71
32456;BME280;18912;43.270;27.942;2023-07-20T02:56:43;97559.13;;;31.10;44.81
32456;BME280;18912;43.270;27.942;2023-07-20T02:59:09;97559.84;;;31.07;44.68
32456;BME280;18912;43.270;27.942;2023-07-20T03:01:34;97570.34;;;30.98;44.91
32456;BME280;18912;43.270;27.942;2023-07-20T03:04:00;97563.50;;;30.71;45.04
32456;BME280;18912;43.270;27.942;2023-07-20T03:06:25;97559.75;;;30.19;46.18
32456;BME280;18912;43.270;27.942;2023-07-20T03:08:51;97532.56;;;29.80;46.65
32456;BME280;18912;43.270;27.942;2023-07-20T03:11:19;97536.06;;;30.13;46.14
32456;BME280;18912;43.270;27.942;2023-07-20T03:13:44;97536.78;;;30.22;46.12
32456;BME280;18912;43.270;27.942;2023-07-20T03:16:11;97533.09;;;30.42;45.93
32456;BME280;18912;43.270;27.942;2023-07-20T03:18:41;97541.91;;;30.44;45.66
32456;BME280;18912;43.270;27.942;2023-07-20T03:21:08;97536.66;;;30.55;45.48
32456;BME280;18912;43.270;27.942;2023-07-20T03:23:34;97534.19;;;30.89;44.84
32456;BME280;18912;43.270;27.942;2023-07-20T03:26:00;97528.25;;;30.91;44.60
32456;BME280;18912;43.270;27.942;2023-07-20T03:28:26;97510.00;;;30.93;45.02
32456;BME280;18912;43.270;27.942;2023-07-20T03:30:56;97507.09;;;31.02;44.71
32456;BME280;18912;43.270;27.942;2023-07-20T03:33:28;97496.13;;;31.09;44.33
32456;BME280;18912;43.270;27.942;2023-07-20T03:35:55;97474.81;;;31.16;44.82
32456;BME280;18912;43.270;27.942;2023-07-20T03:38:21;97469.94;;;31.13;44.60
32456;BME280;18912;43.270;27.942;2023-07-20T03:40:50;97476.53;;;31.21;44.74
32456;BME280;18912;43.270;27.942;2023-07-20T03:43:16;97460.06;;;31.32;44.41
32456;BME280;18912;43.270;27.942;2023-07-20T03:45:42;97447.16;;;31.39;44.95
32456;BME280;18912;43.270;27.942;2023-07-20T03:48:08;97436.06;;;31.43;44.59
32456;BME280;18912;43.270;27.942;2023-07-20T03:50:33;97430.41;;;31.55;44.11
32456;BME280;18912;43.270;27.942;2023-07-20T03:52:59;97409.31;;;31.73;43.96
32456;BME280;18912;43.270;27.942;2023-07-20T03:55:24;97401.75;;;31.89;43.67
32456;BME280;18912;43.270;27.942;2023-07-20T03:57:50;97393.81;;;31.75;44.02
32456;BME280;18912;43.270;27.942;2023-07-20T04:00:17;97390.03;;;31.68;43.84
32456;BME280;18912;43.270;27.942;2023-07-20T04:02:42;97389.59;;;31.97;43.61
32456;BME280;18912;43.270;27.942;2023-07-20T04:05:08;97416.31;;;32.29;43.07
32456;BME280;18912;43.270;27.942;2023-07-20T04:07:33;97433.75;;;32.57;42.81
32456;BME280;18912;43.270;27.942;2023-07-20T04:09:59;97431.63;;;32.70;42.48
32456;BME280;18912;43.270;27.942;2023-07-20T04:12:24;97438.03;;;32.20;42.54
32456;BME280;18912;43.270;27.942;2023-07-20T04:14:50;97450.41;;;32.19;43.28
32456;BME280;18912;43.270;27.942;2023-07-20T04:17:15;97459.06;;;31.67;43.61
32456;BME280;18912;43.270;27.942;2023-07-20T04:19:41;97452.03;;;31.89;43.38
32456;BME280;18912;43.270;27.942;2023-07-20T04:22:06;97442.22;;;32.10;43.39
32456;BME280;18912;43.270;27.942;2023-07-20T04:24:31;97445.38;;;32.09;43.36
32456;BME280;18912;43.270;27.942;2023-07-20T04:26:57;97434.94;;;32.06;43.79
32456;BME280;18912;43.270;27.942;2023-07-20T04:29:22;97433.88;;;32.30;43.27
32456;BME280;18912;43.270;27.942;2023-07-20T04:31:48;97426.59;;;32.25;43.82
32456;BME280;18912;43.270;27.942;2023-07-20T04:34:13;97434.56;;;32.07;44.37
32456;BME280;18912;43.270;27.942;2023-07-20T04:36:39;97433.91;;;31.83;44.16
32456;BME280;18912;43.270;27.942;2023-07-20T04:39:04;97442.56;;;31.62;44.76
32456;BME280;18912;43.270;27.942;2023-07-20T04:41:30;97440.63;;;31.94;44.03
32456;BME280;18912;43.270;27.942;2023-07-20T04:43:56;97460.59;;;32.27;43.71
32456;BME280;18912;43.270;27.942;2023-07-20T04:46:21;97483.34;;;31.94;45.27
32456;BME280;18912;43.270;27.942;2023-07-20T04:48:47;97476.03;;;32.05;44.86
32456;BME280;18912;43.270;27.942;2023-07-20T04:51:13;97489.97;;;32.52;44.50
32456;BME280;18912;43.270;27.942;2023-07-20T04:53:38;97493.56;;;32.68;43.71
32456;BME280;18912;43.270;27.942;2023-07-20T04:56:04;97491.28;;;32.24;44.14
32456;BME280;18912;43.270;27.942;2023-07-20T04:58:30;97482.47;;;32.56;43.04
32456;BME280;18912;43.270;27.942;2023-07-20T05:00:55;97488.00;;;32.53;43.11
32456;BME280;18912;43.270;27.942;2023-07-20T05:03:21;97488.72;;;32.84;43.02
32456;BME280;18912;43.270;27.942;2023-07-20T05:05:49;97504.31;;;33.39;41.78
32456;BME280;18912;43.270;27.942;2023-07-20T05:08:15;97498.56;;;33.13;41.84
32456;BME280;18912;43.270;27.942;2023-07-20T05:10:41;97503.34;;;33.32;41.99
32456;BME280;18912;43.270;27.942;2023-07-20T05:13:07;97504.59;;;33.53;41.49
32456;BME280;18912;43.270;27.942;2023-07-20T05:15:33;97525.31;;;33.30;41.31
32456;BME280;18912;43.270;27.942;2023-07-20T05:18:00;97565.06;;;33.54;41.70
32456;BME280;18912;43.270;27.942;2023-07-20T05:20:25;97570.31;;;32.86;42.46
32456;BME280;18912;43.270;27.942;2023-07-20T05:22:51;97555.34;;;32.79;42.87
32456;BME280;18912;43.270;27.942;2023-07-20T05:25:18;97539.91;;;33.39;41.72
32456;BME280;18912;43.270;27.942;2023-07-20T05:27:44;97560.03;;;33.44;41.49
32456;BME280;18912;43.270;27.942;2023-07-20T05:30:10;97563.72;;;33.86;40.73
32456;BME280;18912;43.270;27.942;2023-07-20T05:32:35;97559.09;;;33.56;41.04
32456;BME280;18912;43.270;27.942;2023-07-20T05:35:01;97564.97;;;33.89;39.74
32456;BME280;18912;43.270;27.942;2023-07-20T05:37:26;97568.25;;;34.36;39.17
32456;BME280;18912;43.270;27.942;2023-07-20T05:39:52;97561.09;;;34.42;39.35
32456;BME280;18912;43.270;27.942;2023-07-20T05:42:17;97549.03;;;34.16;39.36
32456;BME280;18912;43.270;27.942;2023-07-20T05:44:43;97550.78;;;34.46;38.80
32456;BME280;18912;43.270;27.942;2023-07-20T05:47:08;97556.44;;;34.72;38.16
32456;BME280;18912;43.270;27.942;2023-07-20T05:49:34;97551.50;;;35.18;37.86
32456;BME280;18912;43.270;27.942;2023-07-20T05:52:00;97559.16;;;34.69;38.18
32456;BME280;18912;43.270;27.942;2023-07-20T05:54:26;97564.19;;;34.56;38.71
32456;BME280;18912;43.270;27.942;2023-07-20T05:56:52;97568.59;;;35.36;37.66
32456;BME280;18912;43.270;27.942;2023-07-20T05:59:18;97569.69;;;34.98;38.33
32456;BME280;18912;43.270;27.942;2023-07-20T06:01:45;97575.97;;;34.43;38.76
32456;BME280;18912;43.270;27.942;2023-07-20T06:04:10;97579.69;;;34.73;38.25
32456;BME280;18912;43.270;27.942;2023-07-20T06:06:36;97577.78;;;35.33;37.80
32456;BME280;18912;43.270;27.942;2023-07-20T06:09:02;97570.59;;;35.06;37.40
32456;BME280;18912;43.270;27.942;2023-07-20T06:11:32;97586.28;;;35.99;35.92
32456;BME280;18912;43.270;27.942;2023-07-20T06:13:59;97589.16;;;35.14;36.60
32456;BME280;18912;43.270;27.942;2023-07-20T06:16:24;97600.63;;;34.79;36.38
32456;BME280;18912;43.270;27.942;2023-07-20T06:18:50;97604.31;;;34.83;36.64
32456;BME280;18912;43.270;27.942;2023-07-20T06:21:15;97605.47;;;34.56;36.85
32456;BME280;18912;43.270;27.942;2023-07-20T06:23:41;97611.59;;;35.10;36.67
32456;BME280;18912;43.270;27.942;2023-07-20T06:26:07;97619.53;;;35.05;36.36
32456;BME280;18912;43.270;27.942;2023-07-20T06:28:33;97617.00;;;34.73;36.38
32456;BME280;18912;43.270;27.942;2023-07-20T06:31:00;97619.22;;;34.87;36.03
32456;BME280;18912;43.270;27.942;2023-07-20T06:33:25;97622.63;;;35.52;35.66
32456;BME280;18912;43.270;27.942;2023-07-20T06:35:50;97621.88;;;34.99;35.72
32456;BME280;18912;43.270;27.942;2023-07-20T06:38:18;97617.03;;;35.00;35.57
32456;BME280;18912;43.270;27.942;2023-07-20T06:40:43;97614.56;;;34.04;35.80
32456;BME280;18912;43.270;27.942;2023-07-20T06:43:09;97619.53;;;34.14;36.36
32456;BME280;18912;43.270;27.942;2023-07-20T06:45:34;97622.06;;;34.00;36.70
32456;BME280;18912;43.270;27.942;2023-07-20T06:48:00;97620.44;;;33.99;36.78
32456;BME280;18912;43.270;27.942;2023-07-20T07:49:44;97584.38;;;33.05;41.71
32456;BME280;18912;43.270;27.942;2023-07-20T07:52:09;97587.22;;;33.25;41.21
32456;BME280;18912;43.270;27.942;2023-07-20T07:54:35;97580.56;;;33.67;40.26
32456;BME280;18912;43.270;27.942;2023-07-20T07:57:00;97578.78;;;33.05;40.14
32456;BME280;18912;43.270;27.942;2023-07-20T07:59:26;97581.81;;;33.51;39.60
32456;BME280;18912;43.270;27.942;2023-07-20T08:01:52;97580.38;;;33.41;39.67
32456;BME280;18912;43.270;27.942;2023-07-20T08:04:18;97575.28;;;33.28;39.72
32456;BME280;18912;43.270;27.942;2023-07-20T08:06:44;97571.03;;;33.72;39.48
32456;BME280;18912;43.270;27.942;2023-07-20T08:09:09;97571.69;;;33.65;38.44
32456;BME280;18912;43.270;27.942;2023-07-20T08:11:35;97568.75;;;33.58;38.28
32456;BME280;18912;43.270;27.942;2023-07-20T08:14:00;97577.41;;;33.91;38.10
32456;BME280;18912;43.270;27.942;2023-07-20T08:16:26;97574.22;;;34.12;37.56
32456;BME280;18912;43.270;27.942;2023-07-20T08:18:52;97573.44;;;34.12;37.60
32456;BME280;18912;43.270;27.942;2023-07-20T08:21:17;97578.41;;;34.22;37.61
32456;BME280;18912;43.270;27.942;2023-07-20T08:23:43;97579.34;;;33.68;37.59
32456;BME280;18912;43.270;27.942;2023-07-20T08:26:08;97574.59;;;33.91;37.71
32456;BME280;18912;43.270;27.942;2023-07-20T08:28:34;97572.69;;;33.95;37.59
32456;BME280;18912;43.270;27.942;2023-07-20T08:30:59;97567.97;;;34.00;37.45
32456;BME280;18912;43.270;27.942;2023-07-20T08:33:25;97568.31;;;34.17;36.92
32456;BME280;18912;43.270;27.942;2023-07-20T08:35:50;97567.81;;;34.83;36.35
32456;BME280;18912;43.270;27.942;2023-07-20T08:38:16;97568.47;;;34.73;35.53
32456;BME280;18912;43.270;27.942;2023-07-20T08:40:43;97566.19;;;34.33;36.04
32456;BME280;18912;43.270;27.942;2023-07-20T08:43:13;97570.50;;;34.99;35.31
32456;BME280;18912;43.270;27.942;2023-07-20T08:45:40;97564.47;;;34.48;35.02
32456;BME280;18912;43.270;27.942;2023-07-20T08:48:06;97565.69;;;34.50;34.66
32456;BME280;18912;43.270;27.942;2023-07-20T08:50:33;97564.03;;;34.46;34.77
32456;BME280;18912;43.270;27.942;2023-07-20T08:53:00;97556.84;;;34.48;34.40
32456;BME280;18912;43.270;27.942;2023-07-20T08:55:26;97566.63;;;34.84;34.40
32456;BME280;18912;43.270;27.942;2023-07-20T08:57:57;97557.50;;;34.91;33.96
32456;BME280;18912;43.270;27.942;2023-07-20T09:00:23;97560.66;;;34.86;33.90
32456;BME280;18912;43.270;27.942;2023-07-20T09:02:52;97552.88;;;35.02;33.95
32456;BME280;18912;43.270;27.942;2023-07-20T09:05:18;97561.06;;;35.14;33.80
32456;BME280;18912;43.270;27.942;2023-07-20T09:07:44;97556.72;;;35.16;33.75
32456;BME280;18912;43.270;27.942;2023-07-20T09:10:10;97555.53;;;35.21;33.26
32456;BME280;18912;43.270;27.942;2023-07-20T09:12:38;97559.72;;;35.97;32.59
32456;BME280;18912;43.270;27.942;2023-07-20T09:15:05;97555.28;;;35.62;32.22
32456;BME280;18912;43.270;27.942;2023-07-20T09:17:30;97560.25;;;36.49;31.96
32456;BME280;18912;43.270;27.942;2023-07-20T09:19:56;97551.91;;;36.20;31.53
32456;BME280;18912;43.270;27.942;2023-07-20T09:22:21;97557.28;;;36.35;32.04
32456;BME280;18912;43.270;27.942;2023-07-20T09:24:47;97547.19;;;37.36;31.15
32456;BME280;18912;43.270;27.942;2023-07-20T09:27:12;97544.41;;;37.50;31.17
32456;BME280;18912;43.270;27.942;2023-07-20T09:29:51;97549.72;;;36.87;30.69
32456;BME280;18912;43.270;27.942;2023-07-20T09:32:21;97543.72;;;37.74;30.56
32456;BME280;18912;43.270;27.942;2023-07-20T09:34:47;97542.16;;;37.94;29.90
32456;BME280;18912;43.270;27.942;2023-07-20T09:37:13;97542.66;;;37.21;31.27
32456;BME280;18912;43.270;27.942;2023-07-20T09:39:45;97543.63;;;37.46;30.79
32456;BME280;18912;43.270;27.942;2023-07-20T09:42:11;97533.69;;;37.91;29.30
32456;BME280;18912;43.270;27.942;2023-07-20T09:44:38;97535.41;;;38.27;29.66
32456;BME280;18912;43.270;27.942;2023-07-20T09:47:05;97535.38;;;38.90;29.70
32456;BME280;18912;43.270;27.942;2023-07-20T09:49:31;97524.41;;;39.24;28.46
32456;BME280;18912;43.270;27.942;2023-07-20T09:51:58;97541.41;;;39.10;28.23
32456;BME280;18912;43.270;27.942;2023-07-20T09:54:26;97530.91;;;39.07;28.79
32456;BME280;18912;43.270;27.942;2023-07-20T09:56:52;97535.38;;;38.30;29.09
32456;BME280;18912;43.270;27.942;2023-07-20T09:59:18;97530.53;;;38.45;29.36
32456;BME280;18912;43.270;27.942;2023-07-20T10:01:44;97525.31;;;38.33;29.27
32456;BME280;18912;43.270;27.942;2023-07-20T10:04:11;97527.34;;;38.71;29.23
32456;BME280;18912;43.270;27.942;2023-07-20T10:06:42;97521.50;;;39.52;28.30
32456;BME280;18912;43.270;27.942;2023-07-20T10:09:10;97530.78;;;39.49;28.60
32456;BME280;18912;43.270;27.942;2023-07-20T10:11:36;97528.75;;;39.60;28.28
32456;BME280;18912;43.270;27.942;2023-07-20T10:14:04;97517.63;;;38.90;28.88
32456;BME280;18912;43.270;27.942;2023-07-20T10:16:39;97519.59;;;39.14;28.80
32456;BME280;18912;43.270;27.942;2023-07-20T10:19:27;97510.63;;;39.44;28.25
32456;BME280;18912;43.270;27.942;2023-07-20T10:22:08;97498.63;;;39.15;28.13
32456;BME280;18912;43.270;27.942;2023-07-20T10:24:36;97504.66;;;39.17;27.82
32456;BME280;18912;43.270;27.942;2023-07-20T10:27:04;97495.59;;;39.57;28.19
32456;BME280;18912;43.270;27.942;2023-07-20T10:29:30;97498.25;;;38.78;27.29
32456;BME280;18912;43.270;27.942;2023-07-20T10:31:57;97491.69;;;39.23;27.44
32456;BME280;18912;43.270;27.942;2023-07-20T10:34:23;97486.06;;;39.16;27.83
32456;BME280;18912;43.270;27.942;2023-07-20T10:36:49;97489.41;;;38.51;28.67
32456;BME280;18912;43.270;27.942;2023-07-20T10:39:33;97480.88;;;38.97;28.10
32456;BME280;18912;43.270;27.942;2023-07-20T10:42:08;97497.06;;;38.58;28.40
32456;BME280;18912;43.270;27.942;2023-07-20T10:44:37;97482.91;;;38.86;27.99
32456;BME280;18912;43.270;27.942;2023-07-20T10:47:08;97491.19;;;39.56;27.50
32456;BME280;18912;43.270;27.942;2023-07-20T10:49:35;97476.13;;;39.73;27.67
32456;BME280;18912;43.270;27.942;2023-07-20T10:52:04;97485.66;;;39.25;27.86
32456;BME280;18912;43.270;27.942;2023-07-20T10:57:22;97491.78;;;38.88;27.62
32456;BME280;18912;43.270;27.942;2023-07-20T10:59:48;97479.63;;;39.05;27.95
32456;BME280;18912;43.270;27.942;2023-07-20T11:02:18;97480.88;;;39.04;28.05
32456;BME280;18912;43.270;27.942;2023-07-20T11:04:47;97472.81;;;39.09;28.00
32456;BME280;18912;43.270;27.942;2023-07-20T11:07:17;97482.06;;;39.17;28.38
32456;BME280;18912;43.270;27.942;2023-07-20T11:10:15;97462.59;;;39.30;28.27
32456;BME280;18912;43.270;27.942;2023-07-20T11:13:19;97466.81;;;38.83;28.48
32456;BME280;18912;43.270;27.942;2023-07-20T11:16:01;97462.19;;;39.31;28.46
32456;BME280;18912;43.270;27.942;2023-07-20T11:18:29;97460.59;;;39.99;28.03
32456;BME280;18912;43.270;27.942;2023-07-20T11:20:54;97460.50;;;39.55;28.16
32456;BME280;18912;43.270;27.942;2023-07-20T11:23:20;97457.22;;;40.22;27.98
32456;BME280;18912;43.270;27.942;2023-07-20T11:25:46;97448.00;;;39.45;28.31
32456;BME280;18912;43.270;27.942;2023-07-20T11:28:12;97448.34;;;40.16;27.78
32456;BME280;18912;43.270;27.942;2023-07-20T11:30:38;97442.47;;;39.93;27.54
32456;BME280;18912;43.270;27.942;2023-07-20T11:33:04;97442.22;;;39.70;28.30
32456;BME280;18912;43.270;27.942;2023-07-20T11:35:30;97429.63;;;39.74;27.54
32456;BME280;18912;43.270;27.942;2023-07-20T11:37:56;97439.38;;;39.70;27.58
32456;BME280;18912;43.270;27.942;2023-07-20T11:40:22;97426.84;;;40.22;27.49
32456;BME280;18912;43.270;27.942;2023-07-20T11:42:49;97412.03;;;39.42;27.54
32456;BME280;18912;43.270;27.942;2023-07-20T11:45:16;97417.25;;;39.54;27.98
32456;BME280;18912;43.270;27.942;2023-07-20T11:47:41;97403.41;;;39.74;27.34
32456;BME280;18912;43.270;27.942;2023-07-20T11:50:08;97395.78;;;38.77;29.94
32456;BME280;18912;43.270;27.942;2023-07-20T11:52:33;97411.81;;;39.12;29.60
32456;BME280;18912;43.270;27.942;2023-07-20T11:55:00;97415.41;;;39.88;29.25
32456;BME280;18912;43.270;27.942;2023-07-20T11:57:26;97421.31;;;39.53;29.26
32456;BME280;18912;43.270;27.942;2023-07-20T11:59:56;97416.47;;;39.47;28.25
32456;BME280;18912;43.270;27.942;2023-07-20T12:02:23;97406.78;;;39.44;29.20
32456;BME280;18912;43.270;27.942;2023-07-20T12:04:51;97411.53;;;40.16;28.26
32456;BME280;18912;43.270;27.942;2023-07-20T12:07:18;97415.28;;;40.54;28.47
32456;BME280;18912;43.270;27.942;2023-07-20T12:09:44;97398.28;;;39.48;28.84
32456;BME280;18912;43.270;27.942;2023-07-20T12:12:10;97401.13;;;39.51;29.03
32456;BME280;18912;43.270;27.942;2023-07-20T12:14:39;97408.63;;;38.89;30.06
32456;BME280;18912;43.270;27.942;2023-07-20T12:17:08;97402.75;;;37.95;30.96
32456;BME280;18912;43.270;27.942;2023-07-20T12:19:38;97392.66;;;37.91;30.85
32456;BME280;18912;43.270;27.942;2023-07-20T12:22:03;97385.41;;;37.76;30.94
32456;BME280;18912;43.270;27.942;2023-07-20T12:24:29;97391.38;;;37.67;31.66
32456;BME280;18912;43.270;27.942;2023-07-20T12:26:58;97386.63;;;36.61;33.68
32456;BME280;18912;43.270;27.942;2023-07-20T12:29:23;97378.66;;;36.15;34.29
32456;BME280;18912;43.270;27.942;2023-07-20T12:31:49;97403.66;;;35.40;35.54
32456;BME280;18912;43.270;27.942;2023-07-20T12:34:14;97406.59;;;35.91;35.38
32456;BME280;18912;43.270;27.942;2023-07-20T12:36:40;97397.63;;;35.38;34.93
32456;BME280;18912;43.270;27.942;2023-07-20T12:39:05;97394.66;;;35.60;35.32
32456;BME280;18912;43.270;27.942;2023-07-20T12:41:31;97393.94;;;35.70;35.29
32456;BME280;18912;43.270;27.942;2023-07-20T12:43:56;97398.97;;;35.91;34.96
32456;BME280;18912;43.270;27.942;2023-07-20T12:46:23;97390.53;;;35.91;35.35
32456;BME280;18912;43.270;27.942;2023-07-20T12:48:49;97399.50;;;36.07;35.11
32456;BME280;18912;43.270;27.942;2023-07-20T12:51:15;97399.56;;;36.79;33.96
32456;BME280;18912;43.270;27.942;2023-07-20T12:53:40;97397.47;;;36.62;34.50
32456;BME280;18912;43.270;27.942;2023-07-20T12:56:06;97388.25;;;36.69;34.06
32456;BME280;18912;43.270;27.942;2023-07-20T12:58:31;97379.19;;;36.35;33.90
32456;BME280;18912;43.270;27.942;2023-07-20T13:00:57;97387.19;;;36.26;34.25
32456;BME280;18912;43.270;27.942;2023-07-20T13:03:22;97397.19;;;35.76;34.98
32456;BME280;18912;43.270;27.942;2023-07-20T13:05:48;97390.28;;;36.10;33.93
32456;BME280;18912;43.270;27.942;2023-07-20T13:08:14;97391.59;;;35.80;34.14
32456;BME280;18912;43.270;27.942;2023-07-20T13:10:40;97391.94;;;36.18;34.06
32456;BME280;18912;43.270;27.942;2023-07-20T13:13:06;97399.94;;;36.09;34.15
32456;BME280;18912;43.270;27.942;2023-07-20T13:15:39;97395.59;;;35.35;34.65
32456;BME280;18912;43.270;27.942;2023-07-20T13:18:05;97382.69;;;35.70;35.26
32456;BME280;18912;43.270;27.942;2023-07-20T13:20:31;97386.75;;;35.73;34.98
32456;BME280;18912;43.270;27.942;2023-07-20T13:22:56;97387.06;;;35.64;35.15
32456;BME280;18912;43.270;27.942;2023-07-20T13:25:21;97382.31;;;36.23;34.37
32456;BME280;18912;43.270;27.942;2023-07-20T13:27:47;97385.56;;;35.78;35.65
32456;BME280;18912;43.270;27.942;2023-07-20T13:30:13;97384.53;;;35.96;35.42
32456;BME280;18912;43.270;27.942;2023-07-20T13:32:44;97383.31;;;35.50;35.28
32456;BME280;18912;43.270;27.942;2023-07-20T13:35:11;97378.75;;;35.02;36.65
32456;BME280;18912;43.270;27.942;2023-07-20T13:37:37;97368.84;;;35.11;37.38
32456;BME280;18912;43.270;27.942;2023-07-20T13:40:03;97366.38;;;35.06;36.91
32456;BME280;18912;43.270;27.942;2023-07-20T13:42:31;97371.72;;;35.18;38.12
32456;BME280;18912;43.270;27.942;2023-07-20T13:44:56;97375.28;;;35.12;38.03
32456;BME280;18912;43.270;27.942;2023-07-20T13:47:22;97365.31;;;34.55;38.37
32456;BME280;18912;43.270;27.942;2023-07-20T13:49:47;97365.38;;;34.58;38.20
32456;BME280;18912;43.270;27.942;2023-07-20T13:52:13;97372.38;;;34.45;39.39
32456;BME280;18912;43.270;27.942;2023-07-20T13:54:39;97370.34;;;34.72;39.29
32456;BME280;18912;43.270;27.942;2023-07-20T13:57:04;97373.66;;;34.81;37.59
32456;BME280;18912;43.270;27.942;2023-07-20T13:59:30;97366.66;;;34.98;38.54
32456;BME280;18912;43.270;27.942;2023-07-20T14:01:55;97367.34;;;34.88;38.17